Terminal Aerodrome Forecast
Issued by NWS Northern Indiana

Home | Current Version | Previous Version | Graphics & Text | Print | Product List | Glossary On
Versions: 1 2 3 4 5 6 7 8 9 10 11 12 13 14 15
000
FTUS43 KIWX 150540
TAFFWA
TAF
KFWA 150540Z 1506/1606 20015KT P6SM VCSH BKN045 WS020/22045KT
     FM151100 22017KT 5SM -SHRA BR OVC030
     FM151500 27019G27KT P6SM VCSH OVC020
     FM160000 32010KT P6SM BKN035=

USA.gov is the U.S. government's official web portal to all federal, state and local government web resources and services.